Strona główna
METAR-TAF:

METAR-TAF

Lotnisko :

Brookhaven Airport

Shirley, Nowy Jork, Stany Zjednoczone

Szerokość geograficzna: 40-49-18N, Długość geograficzna: 072-52-08W, wysokość: 25 m

Aktualna obserwacja pogody

Raport powstał 20 minut temu, godzina 08:56 UTC
Wiatr 12 kt od zachód w porywach dochodzący do 21 kt
Temperatura -1°C
Wilgotność 46%
Ciśnienie 1010 hPa
Widzialność: 16.1 km
Zachmurzenie całkowite na wysokości 5500 ft

METAR: KHWV 280856Z AUTO 26012G21KT 10SM OVC055 M01/M11 A2982 RMK AO2 SLP098 T10061111 50001 TSNO

czas: 04:16 (09:16 UTC)


TAF: brakujący

Obserwacja i prognoza pogody dla ponad 4000 lotnisk (raport METAR i TAF).

Dostępne stacje oznaczono żółtymi i czerwonymi punktami na mapie.

Najedź kursorem aby zobaczyć nazwę stacji.

Kliknij aby zobaczyć obserwacje i prognozy pogody.

Aby zmienić mapę: kliknij na zielony przycisk z czarnym krzyżykiem, aby powiększyć; na zielony przycisk z myślnikiem, aby pomniejszyć; na zielone strzałki, aby przejść do map sąsiednich.


METAR-TAF: